Risingdale, Massachusetts
Current Conditions -  °F | °C
As of 5:54 PM on Saturday 20 Dec 2014 (Local Time) from KPSF Reporting Station
Broken Clouds Broken Clouds  
Wind Chill: 16°   Ceiling: 3300
Heat Index: 22°   Visibility: 10mi
Dew Point: 18°   Wind: 5mph
Humidity: 85%   Direction: 280°W
Pressure: 30.21"   Gusts: NA
Location:  42.1779°N, 73.3332°W
Report Text: KPSF 202254Z AUTO 28004KT 10SM BKN033 BKN090 M06/M08 A3021 RMK AO2 SLP252 T10561078
Loading
Personal Weather Stations






























Interactive Weather Map New forecast layout! Learn more

10-Day Weather Forecast

Advertisements
Track Severe Weather on mobile